aviador You're here:

YABA Decoded Metar

in
Report Time2017-08-23 02:00:00
UTC Time2017-08-23 02:12:15
Flight Rules vfr VFR
Wind300° at 03 kt
W.Decomp.*RWY 32: 2.8 kt HW 1 kt LCW
RWY 23: 1.0 kt HW 2.8 kt RCW
W.Rank300° ranks 2
Current wind is below 300° avg. (8.4)
Visibility9999 m
Phenomena:N/A
Clouds:Overcast 051 Hf
Expected CloudBase > 2,400 ft AGL from Temp-Dew spread
Ceiling5,100 ft
Temp13°C
Dew Point07°C (67% RH)
AAT11.2°C
QNH1029 hPa
Raw Report
METAR YABA 230200Z AUTO 30003KT 9999 // OVC051 13/07 Q1029=

Extra information for YABA:More info

Social comments